sensor_id;sensor_type;location;lat;lon;timestamp;temperature;humidity
981;DHT22;479;53.514;9.994;2023-08-01T00:01:14;16.30;99.90
981;DHT22;479;53.514;9.994;2023-08-01T00:03:41;16.30;99.90
981;DHT22;479;53.514;9.994;2023-08-01T00:06:08;16.30;99.90
981;DHT22;479;53.514;9.994;2023-08-01T00:08:35;16.30;99.90
981;DHT22;479;53.514;9.994;2023-08-01T00:11:02;16.20;99.90
981;DHT22;479;53.514;9.994;2023-08-01T00:13:29;16.10;99.90
981;DHT22;479;53.514;9.994;2023-08-01T00:15:57;16.10;99.90
981;DHT22;479;53.514;9.994;2023-08-01T00:18:24;16.20;99.90
981;DHT22;479;53.514;9.994;2023-08-01T00:20:52;16.10;99.90
981;DHT22;479;53.514;9.994;2023-08-01T00:23:19;16.10;99.90
981;DHT22;479;53.514;9.994;2023-08-01T00:25:46;16.10;99.90
981;DHT22;479;53.514;9.994;2023-08-01T00:28:17;16.10;99.90
981;DHT22;479;53.514;9.994;2023-08-01T00:30:43;16.10;99.90
981;DHT22;479;53.514;9.994;2023-08-01T00:33:12;16.10;99.90
981;DHT22;479;53.514;9.994;2023-08-01T00:35:40;16.10;99.90
981;DHT22;479;53.514;9.994;2023-08-01T00:38:07;16.10;99.90
981;DHT22;479;53.514;9.994;2023-08-01T00:40:34;16.20;99.90
981;DHT22;479;53.514;9.994;2023-08-01T00:43:01;16.30;99.90
981;DHT22;479;53.514;9.994;2023-08-01T00:45:29;16.30;99.90
981;DHT22;479;53.514;9.994;2023-08-01T00:47:56;16.20;99.90
981;DHT22;479;53.514;9.994;2023-08-01T00:50:25;16.10;99.90
981;DHT22;479;53.514;9.994;2023-08-01T00:52:52;16.10;99.90
981;DHT22;479;53.514;9.994;2023-08-01T00:55:19;16.10;99.90
981;DHT22;479;53.514;9.994;2023-08-01T00:57:48;16.10;99.90
981;DHT22;479;53.514;9.994;2023-08-01T01:00:15;16.20;99.90
981;DHT22;479;53.514;9.994;2023-08-01T01:02:42;16.20;99.90
981;DHT22;479;53.514;9.994;2023-08-01T01:05:09;16.20;99.90
981;DHT22;479;53.514;9.994;2023-08-01T01:07:39;16.30;99.90
981;DHT22;479;53.514;9.994;2023-08-01T01:10:06;16.30;99.90
981;DHT22;479;53.514;9.994;2023-08-01T01:12:33;16.30;99.90
981;DHT22;479;53.514;9.994;2023-08-01T01:14:59;16.30;99.90
981;DHT22;479;53.514;9.994;2023-08-01T01:17:26;16.20;99.90
981;DHT22;479;53.514;9.994;2023-08-01T01:19:53;16.30;99.90
981;DHT22;479;53.514;9.994;2023-08-01T01:22:22;16.20;99.90
981;DHT22;479;53.514;9.994;2023-08-01T01:24:49;16.20;99.90
981;DHT22;479;53.514;9.994;2023-08-01T01:27:17;16.20;99.90
981;DHT22;479;53.514;9.994;2023-08-01T01:29:45;16.20;99.90
981;DHT22;479;53.514;9.994;2023-08-01T01:32:13;16.20;99.90
981;DHT22;479;53.514;9.994;2023-08-01T01:34:40;16.20;99.90
981;DHT22;479;53.514;9.994;2023-08-01T01:37:07;16.20;99.90
981;DHT22;479;53.514;9.994;2023-08-01T01:39:35;16.20;99.90
981;DHT22;479;53.514;9.994;2023-08-01T01:42:02;16.20;99.90
981;DHT22;479;53.514;9.994;2023-08-01T01:44:30;16.20;99.90
981;DHT22;479;53.514;9.994;2023-08-01T01:46:57;16.20;99.90
981;DHT22;479;53.514;9.994;2023-08-01T01:49:23;16.20;99.90
981;DHT22;479;53.514;9.994;2023-08-01T01:51:51;16.20;99.90
981;DHT22;479;53.514;9.994;2023-08-01T01:54:18;16.30;99.90
981;DHT22;479;53.514;9.994;2023-08-01T01:56:47;16.20;99.90
981;DHT22;479;53.514;9.994;2023-08-01T01:59:14;16.20;99.90
981;DHT22;479;53.514;9.994;2023-08-01T02:01:41;16.10;99.90
981;DHT22;479;53.514;9.994;2023-08-01T02:04:08;16.20;99.90
981;DHT22;479;53.514;9.994;2023-08-01T02:06:34;16.20;99.90
981;DHT22;479;53.514;9.994;2023-08-01T02:09:02;16.20;99.90
981;DHT22;479;53.514;9.994;2023-08-01T02:11:30;16.20;99.90
981;DHT22;479;53.514;9.994;2023-08-01T02:13:58;16.20;99.90
981;DHT22;479;53.514;9.994;2023-08-01T02:16:25;16.20;99.90
981;DHT22;479;53.514;9.994;2023-08-01T02:18:52;16.20;99.90
981;DHT22;479;53.514;9.994;2023-08-01T02:21:19;16.30;99.90
981;DHT22;479;53.514;9.994;2023-08-01T02:23:46;16.30;99.90
981;DHT22;479;53.514;9.994;2023-08-01T02:26:12;16.40;99.90
981;DHT22;479;53.514;9.994;2023-08-01T02:28:40;16.30;99.90
981;DHT22;479;53.514;9.994;2023-08-01T02:31:08;16.30;99.90
981;DHT22;479;53.514;9.994;2023-08-01T02:33:35;16.30;99.90
981;DHT22;479;53.514;9.994;2023-08-01T02:36:02;16.40;99.90
981;DHT22;479;53.514;9.994;2023-08-01T02:38:29;16.40;99.90
981;DHT22;479;53.514;9.994;2023-08-01T02:40:56;16.40;99.90
981;DHT22;479;53.514;9.994;2023-08-01T02:43:23;16.40;99.90
981;DHT22;479;53.514;9.994;2023-08-01T02:45:50;16.40;99.90
981;DHT22;479;53.514;9.994;2023-08-01T02:48:18;16.30;99.90
981;DHT22;479;53.514;9.994;2023-08-01T02:50:46;16.30;99.90
981;DHT22;479;53.514;9.994;2023-08-01T02:53:12;16.30;99.90
981;DHT22;479;53.514;9.994;2023-08-01T02:55:39;16.40;99.90
981;DHT22;479;53.514;9.994;2023-08-01T02:58:05;16.30;99.90
981;DHT22;479;53.514;9.994;2023-08-01T03:00:32;16.30;99.90
981;DHT22;479;53.514;9.994;2023-08-01T03:02:59;16.30;99.90
981;DHT22;479;53.514;9.994;2023-08-01T03:05:27;16.40;99.90
981;DHT22;479;53.514;9.994;2023-08-01T03:07:54;16.40;99.90
981;DHT22;479;53.514;9.994;2023-08-01T03:10:21;16.40;99.90
981;DHT22;479;53.514;9.994;2023-08-01T03:12:48;16.40;99.90
981;DHT22;479;53.514;9.994;2023-08-01T03:15:15;16.40;99.90
981;DHT22;479;53.514;9.994;2023-08-01T03:17:42;16.40;99.90
981;DHT22;479;53.514;9.994;2023-08-01T03:20:09;16.40;99.90
981;DHT22;479;53.514;9.994;2023-08-01T03:22:38;16.40;99.90
981;DHT22;479;53.514;9.994;2023-08-01T03:25:06;16.40;99.90
981;DHT22;479;53.514;9.994;2023-08-01T03:27:33;16.40;99.90
981;DHT22;479;53.514;9.994;2023-08-01T03:30:00;16.40;99.90
981;DHT22;479;53.514;9.994;2023-08-01T03:32:27;16.40;99.90
981;DHT22;479;53.514;9.994;2023-08-01T03:34:54;16.30;99.90
981;DHT22;479;53.514;9.994;2023-08-01T03:37:21;16.30;99.90
981;DHT22;479;53.514;9.994;2023-08-01T03:39:49;16.30;99.90
981;DHT22;479;53.514;9.994;2023-08-01T03:42:16;16.30;99.90
981;DHT22;479;53.514;9.994;2023-08-01T03:44:43;16.40;99.90
981;DHT22;479;53.514;9.994;2023-08-01T03:47:10;16.40;99.90
981;DHT22;479;53.514;9.994;2023-08-01T03:49:37;16.40;99.90
981;DHT22;479;53.514;9.994;2023-08-01T03:52:05;16.40;99.90
981;DHT22;479;53.514;9.994;2023-08-01T03:54:32;16.30;99.90
981;DHT22;479;53.514;9.994;2023-08-01T03:57:00;16.30;99.90
981;DHT22;479;53.514;9.994;2023-08-01T03:59:28;16.40;99.90
981;DHT22;479;53.514;9.994;2023-08-01T04:01:54;16.40;99.90
981;DHT22;479;53.514;9.994;2023-08-01T04:04:22;16.40;99.90
981;DHT22;479;53.514;9.994;2023-08-01T04:06:49;16.40;99.90
981;DHT22;479;53.514;9.994;2023-08-01T04:09:15;16.30;99.90
981;DHT22;479;53.514;9.994;2023-08-01T04:11:42;16.30;99.90
981;DHT22;479;53.514;9.994;2023-08-01T04:14:10;16.30;99.90
981;DHT22;479;53.514;9.994;2023-08-01T04:16:37;16.30;99.90
981;DHT22;479;53.514;9.994;2023-08-01T04:19:04;16.30;99.90
981;DHT22;479;53.514;9.994;2023-08-01T04:21:31;16.30;99.90
981;DHT22;479;53.514;9.994;2023-08-01T04:23:58;16.30;99.90
981;DHT22;479;53.514;9.994;2023-08-01T04:26:24;16.30;99.90
981;DHT22;479;53.514;9.994;2023-08-01T04:28:51;16.30;99.90
981;DHT22;479;53.514;9.994;2023-08-01T04:31:20;16.30;99.90
981;DHT22;479;53.514;9.994;2023-08-01T04:33:46;16.40;99.90
981;DHT22;479;53.514;9.994;2023-08-01T04:36:13;16.30;99.90
981;DHT22;479;53.514;9.994;2023-08-01T04:38:41;16.40;99.90
981;DHT22;479;53.514;9.994;2023-08-01T04:41:08;16.40;99.90
981;DHT22;479;53.514;9.994;2023-08-01T04:43:35;16.40;99.90
981;DHT22;479;53.514;9.994;2023-08-01T04:46:02;16.40;99.90
981;DHT22;479;53.514;9.994;2023-08-01T04:48:30;16.40;99.90
981;DHT22;479;53.514;9.994;2023-08-01T04:50:57;16.40;99.90
981;DHT22;479;53.514;9.994;2023-08-01T04:53:23;16.40;99.90
981;DHT22;479;53.514;9.994;2023-08-01T04:55:50;16.40;99.90
981;DHT22;479;53.514;9.994;2023-08-01T04:58:17;16.40;99.90
981;DHT22;479;53.514;9.994;2023-08-01T05:00:44;16.50;99.90
981;DHT22;479;53.514;9.994;2023-08-01T05:03:11;16.50;99.90
981;DHT22;479;53.514;9.994;2023-08-01T05:05:39;16.50;99.90
981;DHT22;479;53.514;9.994;2023-08-01T05:08:06;16.50;99.90
981;DHT22;479;53.514;9.994;2023-08-01T05:10:33;16.60;99.90
981;DHT22;479;53.514;9.994;2023-08-01T05:13:00;16.50;99.90
981;DHT22;479;53.514;9.994;2023-08-01T05:15:28;16.50;99.90
981;DHT22;479;53.514;9.994;2023-08-01T05:17:55;16.50;99.90
981;DHT22;479;53.514;9.994;2023-08-01T05:20:22;16.60;99.90
981;DHT22;479;53.514;9.994;2023-08-01T05:22:50;16.60;99.90
981;DHT22;479;53.514;9.994;2023-08-01T05:25:17;16.60;99.90
981;DHT22;479;53.514;9.994;2023-08-01T05:27:43;16.50;99.90
981;DHT22;479;53.514;9.994;2023-08-01T05:30:11;16.50;99.90
981;DHT22;479;53.514;9.994;2023-08-01T05:32:38;16.50;99.90
981;DHT22;479;53.514;9.994;2023-08-01T05:35:07;16.50;99.90
981;DHT22;479;53.514;9.994;2023-08-01T05:37:33;16.50;99.90
981;DHT22;479;53.514;9.994;2023-08-01T05:40:02;16.50;99.90
981;DHT22;479;53.514;9.994;2023-08-01T05:42:29;16.50;99.90
981;DHT22;479;53.514;9.994;2023-08-01T05:44:56;16.60;99.90
981;DHT22;479;53.514;9.994;2023-08-01T05:47:23;16.60;99.90
981;DHT22;479;53.514;9.994;2023-08-01T05:49:50;16.60;99.90
981;DHT22;479;53.514;9.994;2023-08-01T05:52:17;16.70;99.90
981;DHT22;479;53.514;9.994;2023-08-01T05:54:44;16.70;99.90
981;DHT22;479;53.514;9.994;2023-08-01T05:57:12;16.70;99.90
981;DHT22;479;53.514;9.994;2023-08-01T05:59:39;16.80;99.90
981;DHT22;479;53.514;9.994;2023-08-01T06:02:06;16.80;99.90
981;DHT22;479;53.514;9.994;2023-08-01T06:04:33;16.80;99.90
981;DHT22;479;53.514;9.994;2023-08-01T06:07:00;16.80;99.90
981;DHT22;479;53.514;9.994;2023-08-01T06:09:27;16.70;99.90
981;DHT22;479;53.514;9.994;2023-08-01T06:11:54;16.80;99.90
981;DHT22;479;53.514;9.994;2023-08-01T06:14:22;16.70;99.90
981;DHT22;479;53.514;9.994;2023-08-01T06:16:49;16.70;99.90
981;DHT22;479;53.514;9.994;2023-08-01T06:19:16;16.70;99.90
981;DHT22;479;53.514;9.994;2023-08-01T06:21:43;16.80;99.90
981;DHT22;479;53.514;9.994;2023-08-01T06:24:10;16.80;99.90
981;DHT22;479;53.514;9.994;2023-08-01T06:26:37;16.80;99.90
981;DHT22;479;53.514;9.994;2023-08-01T06:29:04;16.90;99.90
981;DHT22;479;53.514;9.994;2023-08-01T06:31:32;16.90;99.90
981;DHT22;479;53.514;9.994;2023-08-01T06:33:59;17.00;99.90
981;DHT22;479;53.514;9.994;2023-08-01T06:36:26;17.10;99.90
981;DHT22;479;53.514;9.994;2023-08-01T06:38:53;17.10;99.90
981;DHT22;479;53.514;9.994;2023-08-01T06:41:20;17.00;99.90
981;DHT22;479;53.514;9.994;2023-08-01T06:43:46;17.00;99.90
981;DHT22;479;53.514;9.994;2023-08-01T06:46:13;17.00;99.90
981;DHT22;479;53.514;9.994;2023-08-01T06:48:41;16.90;99.90
981;DHT22;479;53.514;9.994;2023-08-01T06:51:08;16.90;99.90
981;DHT22;479;53.514;9.994;2023-08-01T06:53:35;16.80;99.90
981;DHT22;479;53.514;9.994;2023-08-01T06:56:02;16.80;99.90
981;DHT22;479;53.514;9.994;2023-08-01T06:58:29;16.80;99.90
981;DHT22;479;53.514;9.994;2023-08-01T07:00:57;16.90;99.90
981;DHT22;479;53.514;9.994;2023-08-01T07:03:24;17.00;99.90
981;DHT22;479;53.514;9.994;2023-08-01T07:05:52;17.10;99.90
981;DHT22;479;53.514;9.994;2023-08-01T07:08:19;17.20;99.90
981;DHT22;479;53.514;9.994;2023-08-01T07:10:48;17.40;99.90
981;DHT22;479;53.514;9.994;2023-08-01T07:13:15;17.30;99.90
981;DHT22;479;53.514;9.994;2023-08-01T07:15:42;17.30;99.90
981;DHT22;479;53.514;9.994;2023-08-01T07:18:09;17.40;99.90
981;DHT22;479;53.514;9.994;2023-08-01T07:20:36;17.50;99.90
981;DHT22;479;53.514;9.994;2023-08-01T07:23:04;17.40;99.90
981;DHT22;479;53.514;9.994;2023-08-01T07:25:31;17.40;99.90
981;DHT22;479;53.514;9.994;2023-08-01T07:27:58;17.40;99.90
981;DHT22;479;53.514;9.994;2023-08-01T07:30:45;17.40;99.90
981;DHT22;479;53.514;9.994;2023-08-01T07:33:12;17.60;99.90
981;DHT22;479;53.514;9.994;2023-08-01T07:35:38;17.60;99.90
981;DHT22;479;53.514;9.994;2023-08-01T07:38:07;17.70;99.90
981;DHT22;479;53.514;9.994;2023-08-01T07:40:36;17.70;99.90
981;DHT22;479;53.514;9.994;2023-08-01T07:43:03;17.70;99.90
981;DHT22;479;53.514;9.994;2023-08-01T07:45:33;17.80;99.90
981;DHT22;479;53.514;9.994;2023-08-01T07:48:00;18.10;99.90
981;DHT22;479;53.514;9.994;2023-08-01T07:50:27;18.10;99.90
981;DHT22;479;53.514;9.994;2023-08-01T07:52:54;18.20;99.90
981;DHT22;479;53.514;9.994;2023-08-01T07:55:22;18.00;99.90
981;DHT22;479;53.514;9.994;2023-08-01T07:57:49;18.10;99.90
981;DHT22;479;53.514;9.994;2023-08-01T08:00:16;18.10;99.90
981;DHT22;479;53.514;9.994;2023-08-01T08:02:45;18.20;99.90
981;DHT22;479;53.514;9.994;2023-08-01T08:05:12;18.20;99.90
981;DHT22;479;53.514;9.994;2023-08-01T08:07:39;18.70;99.90
981;DHT22;479;53.514;9.994;2023-08-01T08:10:07;19.10;99.90
981;DHT22;479;53.514;9.994;2023-08-01T08:12:35;19.30;99.90
981;DHT22;479;53.514;9.994;2023-08-01T08:15:02;19.20;99.90
981;DHT22;479;53.514;9.994;2023-08-01T08:17:29;19.00;99.90
981;DHT22;479;53.514;9.994;2023-08-01T08:19:56;19.00;99.90
981;DHT22;479;53.514;9.994;2023-08-01T08:22:22;18.80;99.90
981;DHT22;479;53.514;9.994;2023-08-01T08:24:49;18.80;99.90
981;DHT22;479;53.514;9.994;2023-08-01T08:27:16;18.80;99.90
981;DHT22;479;53.514;9.994;2023-08-01T08:29:44;18.80;99.90
981;DHT22;479;53.514;9.994;2023-08-01T08:32:11;18.80;99.90
981;DHT22;479;53.514;9.994;2023-08-01T08:34:38;18.70;99.90
981;DHT22;479;53.514;9.994;2023-08-01T08:37:06;18.70;99.90
981;DHT22;479;53.514;9.994;2023-08-01T08:39:32;18.90;99.90
981;DHT22;479;53.514;9.994;2023-08-01T08:41:59;19.00;99.90
981;DHT22;479;53.514;9.994;2023-08-01T08:44:26;19.00;99.90
981;DHT22;479;53.514;9.994;2023-08-01T08:47:03;19.00;99.90
981;DHT22;479;53.514;9.994;2023-08-01T08:49:31;19.00;99.90
981;DHT22;479;53.514;9.994;2023-08-01T08:51:58;19.10;99.90
981;DHT22;479;53.514;9.994;2023-08-01T08:54:27;19.30;99.90
981;DHT22;479;53.514;9.994;2023-08-01T08:56:54;19.90;99.90
981;DHT22;479;53.514;9.994;2023-08-01T08:59:22;20.10;99.90
981;DHT22;479;53.514;9.994;2023-08-01T09:01:51;20.10;99.90
981;DHT22;479;53.514;9.994;2023-08-01T09:04:20;20.20;99.90
981;DHT22;479;53.514;9.994;2023-08-01T09:06:49;19.90;99.90
981;DHT22;479;53.514;9.994;2023-08-01T09:09:17;19.60;99.90
981;DHT22;479;53.514;9.994;2023-08-01T09:11:46;19.50;99.90
981;DHT22;479;53.514;9.994;2023-08-01T09:14:13;19.50;99.90
981;DHT22;479;53.514;9.994;2023-08-01T09:16:40;19.30;99.90
981;DHT22;479;53.514;9.994;2023-08-01T09:19:08;19.10;99.90
981;DHT22;479;53.514;9.994;2023-08-01T09:21:40;18.80;99.90
981;DHT22;479;53.514;9.994;2023-08-01T09:24:11;18.60;99.90
981;DHT22;479;53.514;9.994;2023-08-01T09:26:38;18.50;99.90
981;DHT22;479;53.514;9.994;2023-08-01T09:29:05;18.40;99.90
981;DHT22;479;53.514;9.994;2023-08-01T09:31:34;18.30;99.90
981;DHT22;479;53.514;9.994;2023-08-01T09:34:02;18.30;99.90
981;DHT22;479;53.514;9.994;2023-08-01T09:36:31;18.30;99.90
981;DHT22;479;53.514;9.994;2023-08-01T09:39:00;18.20;99.90
981;DHT22;479;53.514;9.994;2023-08-01T09:41:28;18.30;99.90
981;DHT22;479;53.514;9.994;2023-08-01T09:43:55;18.60;99.90
981;DHT22;479;53.514;9.994;2023-08-01T09:46:23;19.10;99.90
981;DHT22;479;53.514;9.994;2023-08-01T09:48:50;19.40;99.90
981;DHT22;479;53.514;9.994;2023-08-01T09:51:18;19.60;99.90
981;DHT22;479;53.514;9.994;2023-08-01T09:53:50;19.50;99.90
981;DHT22;479;53.514;9.994;2023-08-01T09:56:21;19.80;99.90
981;DHT22;479;53.514;9.994;2023-08-01T09:58:49;20.20;99.90
981;DHT22;479;53.514;9.994;2023-08-01T10:01:20;20.40;99.90
981;DHT22;479;53.514;9.994;2023-08-01T10:03:48;20.50;99.90
981;DHT22;479;53.514;9.994;2023-08-01T10:06:18;20.60;99.90
981;DHT22;479;53.514;9.994;2023-08-01T10:08:46;20.70;99.90
981;DHT22;479;53.514;9.994;2023-08-01T10:11:14;21.40;99.90
981;DHT22;479;53.514;9.994;2023-08-01T10:13:43;21.70;99.90
981;DHT22;479;53.514;9.994;2023-08-01T10:16:11;22.20;99.90
981;DHT22;479;53.514;9.994;2023-08-01T10:18:39;22.70;99.90
981;DHT22;479;53.514;9.994;2023-08-01T10:21:07;22.30;99.90
981;DHT22;479;53.514;9.994;2023-08-01T10:23:35;21.80;99.90
981;DHT22;479;53.514;9.994;2023-08-01T10:26:05;21.80;99.90
981;DHT22;479;53.514;9.994;2023-08-01T10:28:32;21.60;99.90
981;DHT22;479;53.514;9.994;2023-08-01T10:31:14;22.00;99.90
981;DHT22;479;53.514;9.994;2023-08-01T10:33:43;21.80;99.90
981;DHT22;479;53.514;9.994;2023-08-01T10:36:14;21.50;99.90
981;DHT22;479;53.514;9.994;2023-08-01T10:38:51;21.10;99.90
981;DHT22;479;53.514;9.994;2023-08-01T10:41:20;21.00;99.90
981;DHT22;479;53.514;9.994;2023-08-01T10:43:47;21.50;99.90
981;DHT22;479;53.514;9.994;2023-08-01T10:46:15;21.30;99.90
981;DHT22;479;53.514;9.994;2023-08-01T10:48:49;21.20;99.90
981;DHT22;479;53.514;9.994;2023-08-01T10:51:16;21.30;99.90
981;DHT22;479;53.514;9.994;2023-08-01T10:53:43;21.20;99.90
981;DHT22;479;53.514;9.994;2023-08-01T10:56:17;21.00;99.90
981;DHT22;479;53.514;9.994;2023-08-01T10:58:45;20.80;99.90
981;DHT22;479;53.514;9.994;2023-08-01T11:01:13;20.80;99.90
981;DHT22;479;53.514;9.994;2023-08-01T11:03:41;21.20;99.90
981;DHT22;479;53.514;9.994;2023-08-01T11:06:09;21.30;99.90
981;DHT22;479;53.514;9.994;2023-08-01T11:08:37;21.20;99.90
981;DHT22;479;53.514;9.994;2023-08-01T11:11:05;21.30;99.90
981;DHT22;479;53.514;9.994;2023-08-01T11:13:33;20.80;99.90
981;DHT22;479;53.514;9.994;2023-08-01T11:16:02;20.10;99.90
981;DHT22;479;53.514;9.994;2023-08-01T11:18:30;19.30;99.90
981;DHT22;479;53.514;9.994;2023-08-01T11:20:58;18.80;99.90
981;DHT22;479;53.514;9.994;2023-08-01T11:23:29;18.30;99.90
981;DHT22;479;53.514;9.994;2023-08-01T11:25:56;18.00;99.90
981;DHT22;479;53.514;9.994;2023-08-01T11:28:23;17.60;99.90
981;DHT22;479;53.514;9.994;2023-08-01T11:30:50;17.40;99.90
981;DHT22;479;53.514;9.994;2023-08-01T11:33:19;17.30;99.90
981;DHT22;479;53.514;9.994;2023-08-01T11:35:50;17.30;99.90
981;DHT22;479;53.514;9.994;2023-08-01T11:38:20;17.30;99.90
981;DHT22;479;53.514;9.994;2023-08-01T11:40:47;17.30;99.90
981;DHT22;479;53.514;9.994;2023-08-01T11:43:15;17.40;99.90
981;DHT22;479;53.514;9.994;2023-08-01T11:45:49;17.50;99.90
981;DHT22;479;53.514;9.994;2023-08-01T11:48:16;17.40;99.90
981;DHT22;479;53.514;9.994;2023-08-01T11:50:44;17.50;99.90
981;DHT22;479;53.514;9.994;2023-08-01T11:53:19;17.40;99.90
981;DHT22;479;53.514;9.994;2023-08-01T11:55:47;17.30;99.90
981;DHT22;479;53.514;9.994;2023-08-01T11:58:14;17.40;99.90
981;DHT22;479;53.514;9.994;2023-08-01T12:00:41;17.40;99.90
981;DHT22;479;53.514;9.994;2023-08-01T12:03:09;17.50;99.90
981;DHT22;479;53.514;9.994;2023-08-01T12:05:39;17.70;99.90
981;DHT22;479;53.514;9.994;2023-08-01T12:08:12;18.10;99.90
981;DHT22;479;53.514;9.994;2023-08-01T12:10:42;18.40;99.90
981;DHT22;479;53.514;9.994;2023-08-01T12:13:22;18.70;99.90
981;DHT22;479;53.514;9.994;2023-08-01T12:15:49;18.80;99.90
981;DHT22;479;53.514;9.994;2023-08-01T12:18:20;18.60;99.90
981;DHT22;479;53.514;9.994;2023-08-01T12:20:47;18.50;99.90
981;DHT22;479;53.514;9.994;2023-08-01T12:23:14;18.40;99.90
981;DHT22;479;53.514;9.994;2023-08-01T12:25:43;18.40;99.90
981;DHT22;479;53.514;9.994;2023-08-01T12:28:09;18.30;99.90
981;DHT22;479;53.514;9.994;2023-08-01T12:30:39;18.60;99.90
981;DHT22;479;53.514;9.994;2023-08-01T12:33:07;18.70;99.90
981;DHT22;479;53.514;9.994;2023-08-01T12:35:33;18.80;99.90
981;DHT22;479;53.514;9.994;2023-08-01T12:38:00;18.80;99.90
981;DHT22;479;53.514;9.994;2023-08-01T12:40:27;18.50;99.90
981;DHT22;479;53.514;9.994;2023-08-01T12:42:55;18.30;99.90
981;DHT22;479;53.514;9.994;2023-08-01T12:45:22;18.20;99.90
981;DHT22;479;53.514;9.994;2023-08-01T12:47:49;17.80;99.90
981;DHT22;479;53.514;9.994;2023-08-01T12:50:16;17.50;99.90
981;DHT22;479;53.514;9.994;2023-08-01T12:52:43;17.40;99.90
981;DHT22;479;53.514;9.994;2023-08-01T12:55:10;17.40;99.90
981;DHT22;479;53.514;9.994;2023-08-01T12:57:37;17.60;99.90
981;DHT22;479;53.514;9.994;2023-08-01T13:00:07;17.90;99.90
981;DHT22;479;53.514;9.994;2023-08-01T13:02:35;18.10;99.90
981;DHT22;479;53.514;9.994;2023-08-01T13:05:03;18.20;99.90
981;DHT22;479;53.514;9.994;2023-08-01T13:07:30;18.50;99.90
981;DHT22;479;53.514;9.994;2023-08-01T13:09:58;18.90;99.90
981;DHT22;479;53.514;9.994;2023-08-01T13:12:25;19.10;99.90
981;DHT22;479;53.514;9.994;2023-08-01T13:14:51;19.30;99.90
981;DHT22;479;53.514;9.994;2023-08-01T13:17:20;19.40;99.90
981;DHT22;479;53.514;9.994;2023-08-01T13:19:47;19.70;99.90
981;DHT22;479;53.514;9.994;2023-08-01T13:22:14;19.80;99.90
981;DHT22;479;53.514;9.994;2023-08-01T13:24:40;19.80;99.90
981;DHT22;479;53.514;9.994;2023-08-01T13:27:07;19.90;99.90
981;DHT22;479;53.514;9.994;2023-08-01T13:29:35;20.20;99.90
981;DHT22;479;53.514;9.994;2023-08-01T13:32:02;20.20;99.90
981;DHT22;479;53.514;9.994;2023-08-01T13:34:30;19.90;99.90
981;DHT22;479;53.514;9.994;2023-08-01T13:36:57;19.60;99.90
981;DHT22;479;53.514;9.994;2023-08-01T13:39:24;19.40;99.90
981;DHT22;479;53.514;9.994;2023-08-01T13:41:51;19.30;99.90
981;DHT22;479;53.514;9.994;2023-08-01T13:44:18;19.30;99.90
981;DHT22;479;53.514;9.994;2023-08-01T13:46:45;18.90;99.90
981;DHT22;479;53.514;9.994;2023-08-01T13:49:12;18.60;99.90
981;DHT22;479;53.514;9.994;2023-08-01T13:51:41;18.50;99.90
981;DHT22;479;53.514;9.994;2023-08-01T13:54:07;18.60;99.90
981;DHT22;479;53.514;9.994;2023-08-01T13:56:34;18.90;99.90
981;DHT22;479;53.514;9.994;2023-08-01T13:59:01;19.10;99.90
981;DHT22;479;53.514;9.994;2023-08-01T14:01:29;19.10;99.90
981;DHT22;479;53.514;9.994;2023-08-01T14:03:56;19.20;99.90
981;DHT22;479;53.514;9.994;2023-08-01T14:06:26;19.20;99.90
981;DHT22;479;53.514;9.994;2023-08-01T14:08:54;19.00;99.90
981;DHT22;479;53.514;9.994;2023-08-01T14:11:21;18.90;99.90
981;DHT22;479;53.514;9.994;2023-08-01T14:13:49;18.70;99.90
981;DHT22;479;53.514;9.994;2023-08-01T14:16:18;18.60;99.90
981;DHT22;479;53.514;9.994;2023-08-01T14:18:45;18.30;99.90
981;DHT22;479;53.514;9.994;2023-08-01T14:21:12;18.30;99.90
981;DHT22;479;53.514;9.994;2023-08-01T14:23:39;18.20;99.90
981;DHT22;479;53.514;9.994;2023-08-01T14:26:08;18.10;99.90
981;DHT22;479;53.514;9.994;2023-08-01T14:28:35;17.90;99.90
981;DHT22;479;53.514;9.994;2023-08-01T14:31:03;17.80;99.90
981;DHT22;479;53.514;9.994;2023-08-01T14:33:30;17.60;99.90
981;DHT22;479;53.514;9.994;2023-08-01T14:35:57;17.60;99.90
981;DHT22;479;53.514;9.994;2023-08-01T14:38:24;17.60;99.90
981;DHT22;479;53.514;9.994;2023-08-01T14:40:52;17.80;99.90
981;DHT22;479;53.514;9.994;2023-08-01T14:43:20;18.00;99.90
981;DHT22;479;53.514;9.994;2023-08-01T14:45:47;18.20;99.90
981;DHT22;479;53.514;9.994;2023-08-01T14:48:14;18.30;99.90
981;DHT22;479;53.514;9.994;2023-08-01T14:50:41;18.20;99.90
981;DHT22;479;53.514;9.994;2023-08-01T14:53:08;18.40;99.90
981;DHT22;479;53.514;9.994;2023-08-01T14:55:35;18.40;99.90
981;DHT22;479;53.514;9.994;2023-08-01T14:58:01;18.40;99.90
981;DHT22;479;53.514;9.994;2023-08-01T15:00:30;18.30;99.90
981;DHT22;479;53.514;9.994;2023-08-01T15:02:57;18.40;99.90
981;DHT22;479;53.514;9.994;2023-08-01T15:05:24;18.70;99.90
981;DHT22;479;53.514;9.994;2023-08-01T15:07:51;18.90;99.90
981;DHT22;479;53.514;9.994;2023-08-01T15:10:18;18.90;99.90
981;DHT22;479;53.514;9.994;2023-08-01T15:12:45;19.00;99.90
981;DHT22;479;53.514;9.994;2023-08-01T15:15:12;18.80;99.90
981;DHT22;479;53.514;9.994;2023-08-01T15:17:40;18.90;99.90
981;DHT22;479;53.514;9.994;2023-08-01T15:20:08;18.70;99.90
981;DHT22;479;53.514;9.994;2023-08-01T15:22:35;18.70;99.90
981;DHT22;479;53.514;9.994;2023-08-01T15:25:02;18.60;99.90
981;DHT22;479;53.514;9.994;2023-08-01T15:27:29;18.70;99.90
981;DHT22;479;53.514;9.994;2023-08-01T15:29:56;18.80;99.90
981;DHT22;479;53.514;9.994;2023-08-01T15:32:23;18.70;99.90
981;DHT22;479;53.514;9.994;2023-08-01T15:34:51;18.60;99.90
981;DHT22;479;53.514;9.994;2023-08-01T15:37:18;18.40;99.90
981;DHT22;479;53.514;9.994;2023-08-01T15:39:45;18.30;99.90
981;DHT22;479;53.514;9.994;2023-08-01T15:42:11;18.40;99.90
981;DHT22;479;53.514;9.994;2023-08-01T15:44:38;18.30;99.90
981;DHT22;479;53.514;9.994;2023-08-01T15:47:05;18.30;99.90
981;DHT22;479;53.514;9.994;2023-08-01T15:49:32;18.20;99.90
981;DHT22;479;53.514;9.994;2023-08-01T15:52:00;18.20;99.90
981;DHT22;479;53.514;9.994;2023-08-01T15:54:27;18.20;99.90
981;DHT22;479;53.514;9.994;2023-08-01T15:56:55;18.00;99.90
981;DHT22;479;53.514;9.994;2023-08-01T15:59:21;17.90;99.90
981;DHT22;479;53.514;9.994;2023-08-01T16:01:48;17.80;99.90
981;DHT22;479;53.514;9.994;2023-08-01T16:04:15;17.80;99.90
981;DHT22;479;53.514;9.994;2023-08-01T16:06:42;17.90;99.90
981;DHT22;479;53.514;9.994;2023-08-01T16:09:11;18.00;99.90
981;DHT22;479;53.514;9.994;2023-08-01T16:11:37;18.00;99.90
981;DHT22;479;53.514;9.994;2023-08-01T16:14:04;18.00;99.90
981;DHT22;479;53.514;9.994;2023-08-01T16:16:31;17.80;99.90
981;DHT22;479;53.514;9.994;2023-08-01T16:18:58;17.90;99.90
981;DHT22;479;53.514;9.994;2023-08-01T16:21:25;17.90;99.90
981;DHT22;479;53.514;9.994;2023-08-01T16:23:52;18.00;99.90
981;DHT22;479;53.514;9.994;2023-08-01T16:26:20;18.00;99.90
981;DHT22;479;53.514;9.994;2023-08-01T16:28:47;18.00;99.90
981;DHT22;479;53.514;9.994;2023-08-01T16:31:14;17.90;99.90
981;DHT22;479;53.514;9.994;2023-08-01T16:33:40;17.90;99.90
981;DHT22;479;53.514;9.994;2023-08-01T16:36:08;18.00;99.90